sensor_id;sensor_type;location;lat;lon;timestamp;P1;P2;P0
49708;PMS5003;35601;55.902;13.606;2023-03-19T00:01:51;53;49;
49708;PMS5003;35601;55.902;13.606;2023-03-19T00:04:17;56;48;
49708;PMS5003;35601;55.902;13.606;2023-03-19T00:06:43;49;47;
49708;PMS5003;35601;55.902;13.606;2023-03-19T00:09:08;49;48;
49708;PMS5003;35601;55.902;13.606;2023-03-19T00:11:33;59;55;
49708;PMS5003;35601;55.902;13.606;2023-03-19T00:13:59;65;58;
49708;PMS5003;35601;55.902;13.606;2023-03-19T00:16:24;62;50;
49708;PMS5003;35601;55.902;13.606;2023-03-19T00:18:49;48;43;
49708;PMS5003;35601;55.902;13.606;2023-03-19T00:21:14;49;46;
49708;PMS5003;35601;55.902;13.606;2023-03-19T00:23:40;50;45;
49708;PMS5003;35601;55.902;13.606;2023-03-19T00:26:05;52;47;
49708;PMS5003;35601;55.902;13.606;2023-03-19T00:28:30;68;60;
49708;PMS5003;35601;55.902;13.606;2023-03-19T00:33:22;65;51;
49708;PMS5003;35601;55.902;13.606;2023-03-19T00:35:47;49;44;
49708;PMS5003;35601;55.902;13.606;2023-03-19T00:38:12;54;48;
49708;PMS5003;35601;55.902;13.606;2023-03-19T00:40:37;56;48;
49708;PMS5003;35601;55.902;13.606;2023-03-19T00:43:03;54;47;
49708;PMS5003;35601;55.902;13.606;2023-03-19T00:45:29;51;43;
49708;PMS5003;35601;55.902;13.606;2023-03-19T00:47:55;51;48;
49708;PMS5003;35601;55.902;13.606;2023-03-19T00:50:20;53;50;
49708;PMS5003;35601;55.902;13.606;2023-03-19T00:52:45;53;47;
49708;PMS5003;35601;55.902;13.606;2023-03-19T00:55:10;58;52;
49708;PMS5003;35601;55.902;13.606;2023-03-19T00:57:36;50;45;
49708;PMS5003;35601;55.902;13.606;2023-03-19T01:00:01;51;47;
49708;PMS5003;35601;55.902;13.606;2023-03-19T01:02:26;52;47;
49708;PMS5003;35601;55.902;13.606;2023-03-19T01:04:51;66;57;
49708;PMS5003;35601;55.902;13.606;2023-03-19T01:07:17;54;52;
49708;PMS5003;35601;55.902;13.606;2023-03-19T01:09:44;47;46;
49708;PMS5003;35601;55.902;13.606;2023-03-19T01:12:09;53;48;
49708;PMS5003;35601;55.902;13.606;2023-03-19T01:14:33;46;45;
49708;PMS5003;35601;55.902;13.606;2023-03-19T01:16:58;51;49;
49708;PMS5003;35601;55.902;13.606;2023-03-19T01:19:23;47;43;
49708;PMS5003;35601;55.902;13.606;2023-03-19T01:21:49;45;42;
49708;PMS5003;35601;55.902;13.606;2023-03-19T01:24:14;46;44;
49708;PMS5003;35601;55.902;13.606;2023-03-19T01:26:42;48;45;
49708;PMS5003;35601;55.902;13.606;2023-03-19T01:29:05;45;42;
49708;PMS5003;35601;55.902;13.606;2023-03-19T01:31:31;48;42;
49708;PMS5003;35601;55.902;13.606;2023-03-19T01:33:56;56;47;
49708;PMS5003;35601;55.902;13.606;2023-03-19T01:36:22;54;52;
49708;PMS5003;35601;55.902;13.606;2023-03-19T01:38:47;50;46;
49708;PMS5003;35601;55.902;13.606;2023-03-19T01:41:14;57;49;
49708;PMS5003;35601;55.902;13.606;2023-03-19T01:43:38;51;46;
49708;PMS5003;35601;55.902;13.606;2023-03-19T01:46:04;55;47;
49708;PMS5003;35601;55.902;13.606;2023-03-19T01:48:31;54;52;
49708;PMS5003;35601;55.902;13.606;2023-03-19T01:50:54;55;47;
49708;PMS5003;35601;55.902;13.606;2023-03-19T01:53:20;64;57;
49708;PMS5003;35601;55.902;13.606;2023-03-19T01:55:44;57;51;
49708;PMS5003;35601;55.902;13.606;2023-03-19T01:58:11;60;46;
49708;PMS5003;35601;55.902;13.606;2023-03-19T02:00:36;58;50;
49708;PMS5003;35601;55.902;13.606;2023-03-19T02:03:01;65;56;
49708;PMS5003;35601;55.902;13.606;2023-03-19T02:05:27;57;45;
49708;PMS5003;35601;55.902;13.606;2023-03-19T02:07:53;50;45;
49708;PMS5003;35601;55.902;13.606;2023-03-19T02:10:18;57;49;
49708;PMS5003;35601;55.902;13.606;2023-03-19T02:12:44;46;44;
49708;PMS5003;35601;55.902;13.606;2023-03-19T02:15:09;55;50;
49708;PMS5003;35601;55.902;13.606;2023-03-19T02:17:34;54;46;
49708;PMS5003;35601;55.902;13.606;2023-03-19T02:20:00;53;45;
49708;PMS5003;35601;55.902;13.606;2023-03-19T02:22:27;66;57;
49708;PMS5003;35601;55.902;13.606;2023-03-19T02:24:52;61;52;
49708;PMS5003;35601;55.902;13.606;2023-03-19T02:27:16;55;49;
49708;PMS5003;35601;55.902;13.606;2023-03-19T02:29:41;57;54;
49708;PMS5003;35601;55.902;13.606;2023-03-19T02:32:07;52;49;
49708;PMS5003;35601;55.902;13.606;2023-03-19T02:34:33;48;43;
49708;PMS5003;35601;55.902;13.606;2023-03-19T02:36:58;59;52;
49708;PMS5003;35601;55.902;13.606;2023-03-19T02:39:24;59;57;
49708;PMS5003;35601;55.902;13.606;2023-03-19T02:41:49;55;52;
49708;PMS5003;35601;55.902;13.606;2023-03-19T02:44:14;62;51;
49708;PMS5003;35601;55.902;13.606;2023-03-19T02:46:39;64;56;
49708;PMS5003;35601;55.902;13.606;2023-03-19T02:49:05;58;50;
49708;PMS5003;35601;55.902;13.606;2023-03-19T02:51:31;62;53;
49708;PMS5003;35601;55.902;13.606;2023-03-19T02:53:55;50;45;
49708;PMS5003;35601;55.902;13.606;2023-03-19T02:56:21;48;42;
49708;PMS5003;35601;55.902;13.606;2023-03-19T02:58:46;55;46;
49708;PMS5003;35601;55.902;13.606;2023-03-19T03:01:12;51;46;
49708;PMS5003;35601;55.902;13.606;2023-03-19T03:03:37;39;37;
49708;PMS5003;35601;55.902;13.606;2023-03-19T03:06:03;47;39;
49708;PMS5003;35601;55.902;13.606;2023-03-19T03:08:28;53;49;
49708;PMS5003;35601;55.902;13.606;2023-03-19T03:10:54;50;47;
49708;PMS5003;35601;55.902;13.606;2023-03-19T03:13:19;50;46;
49708;PMS5003;35601;55.902;13.606;2023-03-19T03:15:44;47;40;
49708;PMS5003;35601;55.902;13.606;2023-03-19T03:18:10;58;44;
49708;PMS5003;35601;55.902;13.606;2023-03-19T03:20:36;52;44;
49708;PMS5003;35601;55.902;13.606;2023-03-19T03:23:03;49;43;
49708;PMS5003;35601;55.902;13.606;2023-03-19T03:25:27;54;44;
49708;PMS5003;35601;55.902;13.606;2023-03-19T03:27:52;49;45;
49708;PMS5003;35601;55.902;13.606;2023-03-19T03:30:18;54;46;
49708;PMS5003;35601;55.902;13.606;2023-03-19T03:32:44;43;38;
49708;PMS5003;35601;55.902;13.606;2023-03-19T03:35:09;50;45;
49708;PMS5003;35601;55.902;13.606;2023-03-19T03:37:35;51;39;
49708;PMS5003;35601;55.902;13.606;2023-03-19T03:40:00;46;42;
49708;PMS5003;35601;55.902;13.606;2023-03-19T03:42:25;52;42;
49708;PMS5003;35601;55.902;13.606;2023-03-19T03:44:50;44;42;
49708;PMS5003;35601;55.902;13.606;2023-03-19T03:47:16;45;43;
49708;PMS5003;35601;55.902;13.606;2023-03-19T03:49:41;48;42;
49708;PMS5003;35601;55.902;13.606;2023-03-19T03:52:06;51;42;
49708;PMS5003;35601;55.902;13.606;2023-03-19T03:54:32;39;36;
49708;PMS5003;35601;55.902;13.606;2023-03-19T03:56:57;45;39;
49708;PMS5003;35601;55.902;13.606;2023-03-19T03:59:22;40;37;
49708;PMS5003;35601;55.902;13.606;2023-03-19T04:01:48;43;35;
49708;PMS5003;35601;55.902;13.606;2023-03-19T04:04:13;41;36;
49708;PMS5003;35601;55.902;13.606;2023-03-19T04:06:39;51;42;
49708;PMS5003;35601;55.902;13.606;2023-03-19T04:09:04;48;39;
49708;PMS5003;35601;55.902;13.606;2023-03-19T04:11:31;42;40;
49708;PMS5003;35601;55.902;13.606;2023-03-19T04:13:55;38;32;
49708;PMS5003;35601;55.902;13.606;2023-03-19T04:16:20;45;39;
49708;PMS5003;35601;55.902;13.606;2023-03-19T04:18:46;43;40;
49708;PMS5003;35601;55.902;13.606;2023-03-19T04:21:11;39;32;
49708;PMS5003;35601;55.902;13.606;2023-03-19T04:23:37;51;39;
49708;PMS5003;35601;55.902;13.606;2023-03-19T04:26:03;51;39;
49708;PMS5003;35601;55.902;13.606;2023-03-19T04:28:28;46;37;
49708;PMS5003;35601;55.902;13.606;2023-03-19T04:30:58;49;39;
49708;PMS5003;35601;55.902;13.606;2023-03-19T04:33:18;45;37;
49708;PMS5003;35601;55.902;13.606;2023-03-19T04:35:44;49;46;
49708;PMS5003;35601;55.902;13.606;2023-03-19T04:38:09;43;39;
49708;PMS5003;35601;55.902;13.606;2023-03-19T04:40:36;52;42;
49708;PMS5003;35601;55.902;13.606;2023-03-19T04:43:00;48;47;
49708;PMS5003;35601;55.902;13.606;2023-03-19T04:45:26;45;41;
49708;PMS5003;35601;55.902;13.606;2023-03-19T04:47:52;56;52;
49708;PMS5003;35601;55.902;13.606;2023-03-19T04:50:18;49;42;
49708;PMS5003;35601;55.902;13.606;2023-03-19T04:52:43;52;50;
49708;PMS5003;35601;55.902;13.606;2023-03-19T04:55:09;52;43;
49708;PMS5003;35601;55.902;13.606;2023-03-19T04:57:33;46;43;
49708;PMS5003;35601;55.902;13.606;2023-03-19T04:59:59;56;47;
49708;PMS5003;35601;55.902;13.606;2023-03-19T05:02:24;57;46;
49708;PMS5003;35601;55.902;13.606;2023-03-19T05:04:49;52;41;
49708;PMS5003;35601;55.902;13.606;2023-03-19T05:07:16;43;41;
49708;PMS5003;35601;55.902;13.606;2023-03-19T05:09:39;47;44;
49708;PMS5003;35601;55.902;13.606;2023-03-19T05:12:05;52;42;
49708;PMS5003;35601;55.902;13.606;2023-03-19T05:14:31;54;46;
49708;PMS5003;35601;55.902;13.606;2023-03-19T05:16:56;51;47;
49708;PMS5003;35601;55.902;13.606;2023-03-19T05:19:22;50;47;
49708;PMS5003;35601;55.902;13.606;2023-03-19T05:21:47;59;48;
49708;PMS5003;35601;55.902;13.606;2023-03-19T05:24:13;55;46;
49708;PMS5003;35601;55.902;13.606;2023-03-19T05:26:39;58;51;
49708;PMS5003;35601;55.902;13.606;2023-03-19T05:29:04;60;54;
49708;PMS5003;35601;55.902;13.606;2023-03-19T05:31:29;61;55;
49708;PMS5003;35601;55.902;13.606;2023-03-19T05:33:54;48;47;
49708;PMS5003;35601;55.902;13.606;2023-03-19T05:36:20;56;46;
49708;PMS5003;35601;55.902;13.606;2023-03-19T05:38:45;67;58;
49708;PMS5003;35601;55.902;13.606;2023-03-19T05:41:11;65;51;
49708;PMS5003;35601;55.902;13.606;2023-03-19T05:43:36;66;62;
49708;PMS5003;35601;55.902;13.606;2023-03-19T05:46:02;68;61;
49708;PMS5003;35601;55.902;13.606;2023-03-19T05:48:27;66;55;
49708;PMS5003;35601;55.902;13.606;2023-03-19T05:50:52;65;53;
49708;PMS5003;35601;55.902;13.606;2023-03-19T05:53:18;59;51;
49708;PMS5003;35601;55.902;13.606;2023-03-19T05:55:43;58;52;
49708;PMS5003;35601;55.902;13.606;2023-03-19T05:58:09;59;51;
49708;PMS5003;35601;55.902;13.606;2023-03-19T06:00:35;62;53;
49708;PMS5003;35601;55.902;13.606;2023-03-19T06:03:00;65;56;
49708;PMS5003;35601;55.902;13.606;2023-03-19T06:05:25;69;58;
49708;PMS5003;35601;55.902;13.606;2023-03-19T06:07:51;64;51;
49708;PMS5003;35601;55.902;13.606;2023-03-19T06:10:17;76;57;
49708;PMS5003;35601;55.902;13.606;2023-03-19T06:12:42;67;60;
49708;PMS5003;35601;55.902;13.606;2023-03-19T06:15:08;74;62;
49708;PMS5003;35601;55.902;13.606;2023-03-19T06:17:33;62;55;
49708;PMS5003;35601;55.902;13.606;2023-03-19T06:19:59;78;65;
49708;PMS5003;35601;55.902;13.606;2023-03-19T06:22:24;79;66;
49708;PMS5003;35601;55.902;13.606;2023-03-19T06:24:49;69;63;
49708;PMS5003;35601;55.902;13.606;2023-03-19T06:27:15;72;63;
49708;PMS5003;35601;55.902;13.606;2023-03-19T06:29:40;65;61;
49708;PMS5003;35601;55.902;13.606;2023-03-19T06:32:06;59;51;
49708;PMS5003;35601;55.902;13.606;2023-03-19T06:34:31;73;60;
49708;PMS5003;35601;55.902;13.606;2023-03-19T06:36:57;64;59;
49708;PMS5003;35601;55.902;13.606;2023-03-19T06:39:23;68;61;
49708;PMS5003;35601;55.902;13.606;2023-03-19T06:41:47;66;60;
49708;PMS5003;35601;55.902;13.606;2023-03-19T06:44:13;76;62;
49708;PMS5003;35601;55.902;13.606;2023-03-19T06:46:38;70;57;
49708;PMS5003;35601;55.902;13.606;2023-03-19T06:49:04;70;57;
49708;PMS5003;35601;55.902;13.606;2023-03-19T06:51:30;72;63;
49708;PMS5003;35601;55.902;13.606;2023-03-19T06:53:55;77;62;
49708;PMS5003;35601;55.902;13.606;2023-03-19T06:56:21;68;60;
49708;PMS5003;35601;55.902;13.606;2023-03-19T06:58:47;70;62;
49708;PMS5003;35601;55.902;13.606;2023-03-19T07:01:12;56;49;
49708;PMS5003;35601;55.902;13.606;2023-03-19T07:03:37;63;60;
49708;PMS5003;35601;55.902;13.606;2023-03-19T07:06:04;63;52;
49708;PMS5003;35601;55.902;13.606;2023-03-19T07:08:28;66;57;
49708;PMS5003;35601;55.902;13.606;2023-03-19T07:10:54;65;58;
49708;PMS5003;35601;55.902;13.606;2023-03-19T07:13:21;67;59;
49708;PMS5003;35601;55.902;13.606;2023-03-19T07:15:45;72;63;
49708;PMS5003;35601;55.902;13.606;2023-03-19T07:18:10;61;56;
49708;PMS5003;35601;55.902;13.606;2023-03-19T07:20:36;70;61;
49708;PMS5003;35601;55.902;13.606;2023-03-19T07:23:01;62;52;
49708;PMS5003;35601;55.902;13.606;2023-03-19T07:25:27;68;58;
49708;PMS5003;35601;55.902;13.606;2023-03-19T07:27:52;63;55;
49708;PMS5003;35601;55.902;13.606;2023-03-19T07:30:17;66;59;
49708;PMS5003;35601;55.902;13.606;2023-03-19T07:32:42;61;54;
49708;PMS5003;35601;55.902;13.606;2023-03-19T07:35:09;53;51;
49708;PMS5003;35601;55.902;13.606;2023-03-19T07:37:35;72;59;
49708;PMS5003;35601;55.902;13.606;2023-03-19T07:39:59;69;60;
49708;PMS5003;35601;55.902;13.606;2023-03-19T07:42:23;68;55;
49708;PMS5003;35601;55.902;13.606;2023-03-19T07:44:48;68;54;
49708;PMS5003;35601;55.902;13.606;2023-03-19T07:47:14;61;58;
49708;PMS5003;35601;55.902;13.606;2023-03-19T07:49:39;63;57;
49708;PMS5003;35601;55.902;13.606;2023-03-19T07:52:05;69;57;
49708;PMS5003;35601;55.902;13.606;2023-03-19T07:54:30;74;62;
49708;PMS5003;35601;55.902;13.606;2023-03-19T07:56:56;74;63;
49708;PMS5003;35601;55.902;13.606;2023-03-19T07:59:20;70;58;
49708;PMS5003;35601;55.902;13.606;2023-03-19T08:01:46;77;61;
49708;PMS5003;35601;55.902;13.606;2023-03-19T08:04:13;66;59;
49708;PMS5003;35601;55.902;13.606;2023-03-19T08:06:38;60;58;
49708;PMS5003;35601;55.902;13.606;2023-03-19T08:09:03;76;63;
49708;PMS5003;35601;55.902;13.606;2023-03-19T08:11:29;81;63;
49708;PMS5003;35601;55.902;13.606;2023-03-19T08:13:54;61;54;
49708;PMS5003;35601;55.902;13.606;2023-03-19T08:16:19;60;51;
49708;PMS5003;35601;55.902;13.606;2023-03-19T08:18:46;68;62;
49708;PMS5003;35601;55.902;13.606;2023-03-19T08:21:10;66;58;
49708;PMS5003;35601;55.902;13.606;2023-03-19T08:23:35;77;67;
49708;PMS5003;35601;55.902;13.606;2023-03-19T08:26:01;73;64;
49708;PMS5003;35601;55.902;13.606;2023-03-19T08:28:26;69;60;
49708;PMS5003;35601;55.902;13.606;2023-03-19T08:30:51;73;62;
49708;PMS5003;35601;55.902;13.606;2023-03-19T08:33:17;69;63;
49708;PMS5003;35601;55.902;13.606;2023-03-19T08:35:43;67;60;
49708;PMS5003;35601;55.902;13.606;2023-03-19T08:38:08;72;63;
49708;PMS5003;35601;55.902;13.606;2023-03-19T08:40:34;69;58;
49708;PMS5003;35601;55.902;13.606;2023-03-19T08:42:58;60;56;
49708;PMS5003;35601;55.902;13.606;2023-03-19T08:45:24;60;55;
49708;PMS5003;35601;55.902;13.606;2023-03-19T08:47:51;65;56;
49708;PMS5003;35601;55.902;13.606;2023-03-19T08:50:16;60;53;
49708;PMS5003;35601;55.902;13.606;2023-03-19T08:52:41;72;62;
49708;PMS5003;35601;55.902;13.606;2023-03-19T08:55:07;68;58;
49708;PMS5003;35601;55.902;13.606;2023-03-19T08:57:34;73;59;
49708;PMS5003;35601;55.902;13.606;2023-03-19T08:59:57;61;56;
49708;PMS5003;35601;55.902;13.606;2023-03-19T09:02:23;69;60;
49708;PMS5003;35601;55.902;13.606;2023-03-19T09:04:48;67;60;
49708;PMS5003;35601;55.902;13.606;2023-03-19T09:07:14;59;52;
49708;PMS5003;35601;55.902;13.606;2023-03-19T09:09:40;69;59;
49708;PMS5003;35601;55.902;13.606;2023-03-19T09:12:05;68;58;
49708;PMS5003;35601;55.902;13.606;2023-03-19T09:14:30;70;59;
49708;PMS5003;35601;55.902;13.606;2023-03-19T09:16:56;63;50;
49708;PMS5003;35601;55.902;13.606;2023-03-19T09:19:22;60;56;
49708;PMS5003;35601;55.902;13.606;2023-03-19T09:21:47;61;53;
49708;PMS5003;35601;55.902;13.606;2023-03-19T09:24:13;61;49;
49708;PMS5003;35601;55.902;13.606;2023-03-19T09:26:40;63;54;
49708;PMS5003;35601;55.902;13.606;2023-03-19T09:29:03;59;52;
49708;PMS5003;35601;55.902;13.606;2023-03-19T09:31:30;57;52;
49708;PMS5003;35601;55.902;13.606;2023-03-19T09:33:54;60;50;
49708;PMS5003;35601;55.902;13.606;2023-03-19T09:36:19;66;56;
49708;PMS5003;35601;55.902;13.606;2023-03-19T09:38:44;60;50;
49708;PMS5003;35601;55.902;13.606;2023-03-19T09:41:12;65;58;
49708;PMS5003;35601;55.902;13.606;2023-03-19T09:43:40;59;52;
49708;PMS5003;35601;55.902;13.606;2023-03-19T09:46:01;67;51;
49708;PMS5003;35601;55.902;13.606;2023-03-19T09:48:28;63;54;
49708;PMS5003;35601;55.902;13.606;2023-03-19T09:50:54;64;50;
49708;PMS5003;35601;55.902;13.606;2023-03-19T09:53:19;59;49;
49708;PMS5003;35601;55.902;13.606;2023-03-19T09:55:43;58;50;
49708;PMS5003;35601;55.902;13.606;2023-03-19T09:58:09;56;54;
49708;PMS5003;35601;55.902;13.606;2023-03-19T10:00:33;64;53;
49708;PMS5003;35601;55.902;13.606;2023-03-19T10:03:00;61;52;
49708;PMS5003;35601;55.902;13.606;2023-03-19T10:05:28;55;47;
49708;PMS5003;35601;55.902;13.606;2023-03-19T10:07:56;66;57;
49708;PMS5003;35601;55.902;13.606;2023-03-19T10:10:20;57;47;
49708;PMS5003;35601;55.902;13.606;2023-03-19T10:12:44;66;55;
49708;PMS5003;35601;55.902;13.606;2023-03-19T10:15:14;53;47;
49708;PMS5003;35601;55.902;13.606;2023-03-19T10:17:32;55;47;
49708;PMS5003;35601;55.902;13.606;2023-03-19T10:19:57;57;51;
49708;PMS5003;35601;55.902;13.606;2023-03-19T10:22:23;61;54;
49708;PMS5003;35601;55.902;13.606;2023-03-19T10:24:48;58;53;
49708;PMS5003;35601;55.902;13.606;2023-03-19T10:27:14;61;55;
49708;PMS5003;35601;55.902;13.606;2023-03-19T10:29:39;67;59;
49708;PMS5003;35601;55.902;13.606;2023-03-19T10:32:05;63;54;
49708;PMS5003;35601;55.902;13.606;2023-03-19T10:34:30;55;47;
49708;PMS5003;35601;55.902;13.606;2023-03-19T10:36:57;60;51;
49708;PMS5003;35601;55.902;13.606;2023-03-19T10:39:20;68;58;
49708;PMS5003;35601;55.902;13.606;2023-03-19T10:41:47;61;52;
49708;PMS5003;35601;55.902;13.606;2023-03-19T10:44:12;63;54;
49708;PMS5003;35601;55.902;13.606;2023-03-19T10:46:37;56;52;
49708;PMS5003;35601;55.902;13.606;2023-03-19T10:49:01;63;55;
49708;PMS5003;35601;55.902;13.606;2023-03-19T10:51:26;62;54;
49708;PMS5003;35601;55.902;13.606;2023-03-19T10:53:52;61;52;
49708;PMS5003;35601;55.902;13.606;2023-03-19T10:56:19;59;53;
49708;PMS5003;35601;55.902;13.606;2023-03-19T10:58:54;54;50;
49708;PMS5003;35601;55.902;13.606;2023-03-19T11:01:08;59;52;
49708;PMS5003;35601;55.902;13.606;2023-03-19T11:03:35;51;48;
49708;PMS5003;35601;55.902;13.606;2023-03-19T11:06:02;53;47;
49708;PMS5003;35601;55.902;13.606;2023-03-19T11:08:25;49;46;
49708;PMS5003;35601;55.902;13.606;2023-03-19T11:10:50;49;44;
49708;PMS5003;35601;55.902;13.606;2023-03-19T11:13:18;44;41;
49708;PMS5003;35601;55.902;13.606;2023-03-19T11:15:43;48;40;
49708;PMS5003;35601;55.902;13.606;2023-03-19T11:18:14;47;43;
49708;PMS5003;35601;55.902;13.606;2023-03-19T11:20:33;59;50;
49708;PMS5003;35601;55.902;13.606;2023-03-19T11:22:59;43;40;
49708;PMS5003;35601;55.902;13.606;2023-03-19T11:25:25;49;46;
49708;PMS5003;35601;55.902;13.606;2023-03-19T11:30:16;61;50;
49708;PMS5003;35601;55.902;13.606;2023-03-19T11:35:07;53;44;
49708;PMS5003;35601;55.902;13.606;2023-03-19T11:37:46;45;42;
49708;PMS5003;35601;55.902;13.606;2023-03-19T11:40:00;55;46;
49708;PMS5003;35601;55.902;13.606;2023-03-19T11:42:34;50;47;
49708;PMS5003;35601;55.902;13.606;2023-03-19T11:44:52;51;44;
49708;PMS5003;35601;55.902;13.606;2023-03-19T11:47:16;46;40;
49708;PMS5003;35601;55.902;13.606;2023-03-19T11:49:41;46;44;
49708;PMS5003;35601;55.902;13.606;2023-03-19T11:52:07;57;44;
49708;PMS5003;35601;55.902;13.606;2023-03-19T11:54:33;52;45;
49708;PMS5003;35601;55.902;13.606;2023-03-19T11:56:57;68;52;
49708;PMS5003;35601;55.902;13.606;2023-03-19T11:59:29;60;51;
49708;PMS5003;35601;55.902;13.606;2023-03-19T12:01:57;59;48;
49708;PMS5003;35601;55.902;13.606;2023-03-19T12:06:41;54;48;
49708;PMS5003;35601;55.902;13.606;2023-03-19T12:09:06;57;46;
49708;PMS5003;35601;55.902;13.606;2023-03-19T12:11:33;53;46;
49708;PMS5003;35601;55.902;13.606;2023-03-19T12:14:01;52;46;
49708;PMS5003;35601;55.902;13.606;2023-03-19T12:16:23;59;49;
49708;PMS5003;35601;55.902;13.606;2023-03-19T12:18:54;58;45;
49708;PMS5003;35601;55.902;13.606;2023-03-19T12:21:13;49;46;
49708;PMS5003;35601;55.902;13.606;2023-03-19T12:23:41;65;52;
49708;PMS5003;35601;55.902;13.606;2023-03-19T12:26:02;52;47;
49708;PMS5003;35601;55.902;13.606;2023-03-19T12:28:28;59;49;
49708;PMS5003;35601;55.902;13.606;2023-03-19T12:30:58;52;48;
49708;PMS5003;35601;55.902;13.606;2023-03-19T12:33:23;58;51;
49708;PMS5003;35601;55.902;13.606;2023-03-19T12:35:45;50;44;
49708;PMS5003;35601;55.902;13.606;2023-03-19T12:38:10;56;50;
49708;PMS5003;35601;55.902;13.606;2023-03-19T12:40:36;51;41;
49708;PMS5003;35601;55.902;13.606;2023-03-19T12:43:01;45;42;
49708;PMS5003;35601;55.902;13.606;2023-03-19T12:45:28;49;43;
49708;PMS5003;35601;55.902;13.606;2023-03-19T12:47:52;46;40;
49708;PMS5003;35601;55.902;13.606;2023-03-19T12:50:17;52;48;
49708;PMS5003;35601;55.902;13.606;2023-03-19T12:52:43;49;42;
49708;PMS5003;35601;55.902;13.606;2023-03-19T12:55:12;43;38;
49708;PMS5003;35601;55.902;13.606;2023-03-19T12:57:34;40;34;
49708;PMS5003;35601;55.902;13.606;2023-03-19T13:00:00;33;30;
49708;PMS5003;35601;55.902;13.606;2023-03-19T13:02:27;34;30;
49708;PMS5003;35601;55.902;13.606;2023-03-19T13:04:52;42;34;
49708;PMS5003;35601;55.902;13.606;2023-03-19T13:07:17;40;35;
49708;PMS5003;35601;55.902;13.606;2023-03-19T13:09:42;32;30;
49708;PMS5003;35601;55.902;13.606;2023-03-19T13:12:08;39;36;
49708;PMS5003;35601;55.902;13.606;2023-03-19T13:14:33;37;31;
49708;PMS5003;35601;55.902;13.606;2023-03-19T13:16:57;33;29;
49708;PMS5003;35601;55.902;13.606;2023-03-19T13:19:24;34;31;
49708;PMS5003;35601;55.902;13.606;2023-03-19T13:21:48;39;33;
49708;PMS5003;35601;55.902;13.606;2023-03-19T13:24:15;42;38;
49708;PMS5003;35601;55.902;13.606;2023-03-19T13:26:38;33;29;
49708;PMS5003;35601;55.902;13.606;2023-03-19T13:29:08;35;32;
49708;PMS5003;35601;55.902;13.606;2023-03-19T13:31:34;43;33;
49708;PMS5003;35601;55.902;13.606;2023-03-19T13:34:01;39;36;
49708;PMS5003;35601;55.902;13.606;2023-03-19T13:36:22;54;39;
49708;PMS5003;35601;55.902;13.606;2023-03-19T13:38:47;40;34;
49708;PMS5003;35601;55.902;13.606;2023-03-19T13:43:38;44;39;
49708;PMS5003;35601;55.902;13.606;2023-03-19T13:46:04;44;38;
49708;PMS5003;35601;55.902;13.606;2023-03-19T13:48:34;50;42;
49708;PMS5003;35601;55.902;13.606;2023-03-19T13:50:54;47;39;
49708;PMS5003;35601;55.902;13.606;2023-03-19T13:53:22;36;31;
49708;PMS5003;35601;55.902;13.606;2023-03-19T13:55:50;33;30;
49708;PMS5003;35601;55.902;13.606;2023-03-19T13:58:14;39;36;
49708;PMS5003;35601;55.902;13.606;2023-03-19T14:03:03;50;44;
49708;PMS5003;35601;55.902;13.606;2023-03-19T14:05:32;41;35;
49708;PMS5003;35601;55.902;13.606;2023-03-19T14:07:54;51;44;
49708;PMS5003;35601;55.902;13.606;2023-03-19T14:10:21;48;40;
49708;PMS5003;35601;55.902;13.606;2023-03-19T14:12:44;45;42;
49708;PMS5003;35601;55.902;13.606;2023-03-19T14:15:14;44;40;
49708;PMS5003;35601;55.902;13.606;2023-03-19T14:17:36;41;37;
49708;PMS5003;35601;55.902;13.606;2023-03-19T14:20:03;51;43;
49708;PMS5003;35601;55.902;13.606;2023-03-19T14:22:31;50;41;
49708;PMS5003;35601;55.902;13.606;2023-03-19T14:24:53;41;39;
49708;PMS5003;35601;55.902;13.606;2023-03-19T14:27:20;44;42;
49708;PMS5003;35601;55.902;13.606;2023-03-19T14:29:44;47;44;
49708;PMS5003;35601;55.902;13.606;2023-03-19T14:32:12;51;45;
49708;PMS5003;35601;55.902;13.606;2023-03-19T14:34:36;54;41;
49708;PMS5003;35601;55.902;13.606;2023-03-19T14:37:02;45;38;
49708;PMS5003;35601;55.902;13.606;2023-03-19T14:39:27;43;39;
49708;PMS5003;35601;55.902;13.606;2023-03-19T14:41:57;38;35;
49708;PMS5003;35601;55.902;13.606;2023-03-19T14:44:24;41;39;
49708;PMS5003;35601;55.902;13.606;2023-03-19T14:46:45;48;42;
49708;PMS5003;35601;55.902;13.606;2023-03-19T14:54:01;40;39;
49708;PMS5003;35601;55.902;13.606;2023-03-19T14:56:26;40;36;
49708;PMS5003;35601;55.902;13.606;2023-03-19T14:58:52;43;35;
49708;PMS5003;35601;55.902;13.606;2023-03-19T15:01:16;44;40;
49708;PMS5003;35601;55.902;13.606;2023-03-19T15:03:41;37;35;
49708;PMS5003;35601;55.902;13.606;2023-03-19T15:06:06;44;38;
49708;PMS5003;35601;55.902;13.606;2023-03-19T15:08:32;50;44;
49708;PMS5003;35601;55.902;13.606;2023-03-19T15:11:00;43;37;
49708;PMS5003;35601;55.902;13.606;2023-03-19T15:13:27;50;41;
49708;PMS5003;35601;55.902;13.606;2023-03-19T15:15:54;49;45;
49708;PMS5003;35601;55.902;13.606;2023-03-19T15:18:14;45;44;
49708;PMS5003;35601;55.902;13.606;2023-03-19T15:20:41;47;39;
49708;PMS5003;35601;55.902;13.606;2023-03-19T15:23:05;55;45;
49708;PMS5003;35601;55.902;13.606;2023-03-19T15:25:30;46;40;
49708;PMS5003;35601;55.902;13.606;2023-03-19T15:28:05;41;39;
49708;PMS5003;35601;55.902;13.606;2023-03-19T15:30:23;43;36;
49708;PMS5003;35601;55.902;13.606;2023-03-19T15:32:47;43;38;
49708;PMS5003;35601;55.902;13.606;2023-03-19T15:35:12;44;39;
49708;PMS5003;35601;55.902;13.606;2023-03-19T15:37:39;48;40;
49708;PMS5003;35601;55.902;13.606;2023-03-19T15:40:06;54;45;
49708;PMS5003;35601;55.902;13.606;2023-03-19T15:42:29;46;39;
49708;PMS5003;35601;55.902;13.606;2023-03-19T15:44:55;45;39;
49708;PMS5003;35601;55.902;13.606;2023-03-19T15:47:20;44;40;
49708;PMS5003;35601;55.902;13.606;2023-03-19T15:49:46;39;37;
49708;PMS5003;35601;55.902;13.606;2023-03-19T15:52:11;42;39;
49708;PMS5003;35601;55.902;13.606;2023-03-19T15:54:37;46;45;
49708;PMS5003;35601;55.902;13.606;2023-03-19T15:57:02;50;40;
49708;PMS5003;35601;55.902;13.606;2023-03-19T15:59:29;44;39;
49708;PMS5003;35601;55.902;13.606;2023-03-19T16:01:55;46;43;
49708;PMS5003;35601;55.902;13.606;2023-03-19T16:04:20;41;37;
49708;PMS5003;35601;55.902;13.606;2023-03-19T16:06:45;49;44;
49708;PMS5003;35601;55.902;13.606;2023-03-19T16:09:16;53;42;